sensor_id;sensor_type;location;lat;lon;timestamp;pressure;altitude;pressure_sealevel;temperature;humidity
34742;BME280;20968;42.696;23.360;2023-03-04T00:02:15;95289.16;;;8.00;75.38
34742;BME280;20968;42.696;23.360;2023-03-04T00:04:40;95284.13;;;7.99;75.54
34742;BME280;20968;42.696;23.360;2023-03-04T00:07:05;95295.38;;;8.10;76.25
34742;BME280;20968;42.696;23.360;2023-03-04T00:09:31;95291.13;;;8.09;75.37
34742;BME280;20968;42.696;23.360;2023-03-04T00:11:56;95285.16;;;8.10;74.92
34742;BME280;20968;42.696;23.360;2023-03-04T00:14:22;95288.38;;;8.09;75.51
34742;BME280;20968;42.696;23.360;2023-03-04T00:16:48;95284.41;;;8.10;76.03
34742;BME280;20968;42.696;23.360;2023-03-04T00:19:13;95288.38;;;8.09;76.38
34742;BME280;20968;42.696;23.360;2023-03-04T00:21:39;95277.25;;;8.12;75.42
34742;BME280;20968;42.696;23.360;2023-03-04T00:24:06;95273.28;;;8.13;75.68
34742;BME280;20968;42.696;23.360;2023-03-04T00:26:31;95284.72;;;8.12;76.82
34742;BME280;20968;42.696;23.360;2023-03-04T00:28:57;95276.38;;;8.15;76.69
34742;BME280;20968;42.696;23.360;2023-03-04T00:31:22;95277.13;;;8.16;76.45
34742;BME280;20968;42.696;23.360;2023-03-04T00:33:48;95272.84;;;8.24;75.85
34742;BME280;20968;42.696;23.360;2023-03-04T00:36:17;95263.69;;;8.09;76.37
34742;BME280;20968;42.696;23.360;2023-03-04T00:38:42;95267.97;;;8.10;76.28
34742;BME280;20968;42.696;23.360;2023-03-04T00:41:07;95268.28;;;8.12;75.87
34742;BME280;20968;42.696;23.360;2023-03-04T00:43:33;95267.03;;;8.13;76.13
34742;BME280;20968;42.696;23.360;2023-03-04T00:45:58;95264.78;;;8.20;76.21
34742;BME280;20968;42.696;23.360;2023-03-04T00:48:25;95265.84;;;8.23;75.80
34742;BME280;20968;42.696;23.360;2023-03-04T00:50:50;95267.34;;;8.24;75.46
34742;BME280;20968;42.696;23.360;2023-03-04T00:53:19;95267.66;;;8.26;75.36
34742;BME280;20968;42.696;23.360;2023-03-04T00:55:45;95256.38;;;8.24;75.23
34742;BME280;20968;42.696;23.360;2023-03-04T00:58:10;95255.16;;;8.25;75.04
34742;BME280;20968;42.696;23.360;2023-03-04T01:00:37;95262.31;;;8.31;76.25
34742;BME280;20968;42.696;23.360;2023-03-04T01:03:03;95258.66;;;8.25;76.16
34742;BME280;20968;42.696;23.360;2023-03-04T01:05:29;95250.88;;;8.33;75.56
34742;BME280;20968;42.696;23.360;2023-03-04T01:07:54;95263.97;;;8.38;75.10
34742;BME280;20968;42.696;23.360;2023-03-04T01:10:20;95268.22;;;8.48;75.34
34742;BME280;20968;42.696;23.360;2023-03-04T01:12:46;95275.66;;;8.47;74.30
34742;BME280;20968;42.696;23.360;2023-03-04T01:15:12;95267.59;;;8.52;74.28
34742;BME280;20968;42.696;23.360;2023-03-04T01:17:38;95254.63;;;8.53;74.04
34742;BME280;20968;42.696;23.360;2023-03-04T01:20:05;95266.50;;;8.59;74.70
34742;BME280;20968;42.696;23.360;2023-03-04T01:22:33;95260.84;;;8.62;73.95
34742;BME280;20968;42.696;23.360;2023-03-04T01:24:59;95253.09;;;8.61;73.70
34742;BME280;20968;42.696;23.360;2023-03-04T01:27:24;95251.53;;;8.69;73.56
34742;BME280;20968;42.696;23.360;2023-03-04T01:29:49;95240.81;;;8.71;73.11
34742;BME280;20968;42.696;23.360;2023-03-04T01:32:16;95240.06;;;8.70;72.84
34742;BME280;20968;42.696;23.360;2023-03-04T01:34:41;95252.59;;;8.71;73.34
34742;BME280;20968;42.696;23.360;2023-03-04T01:37:07;95245.56;;;8.70;73.37
34742;BME280;20968;42.696;23.360;2023-03-04T01:39:33;95242.84;;;8.61;73.32
34742;BME280;20968;42.696;23.360;2023-03-04T01:41:59;95244.25;;;8.57;73.62
34742;BME280;20968;42.696;23.360;2023-03-04T01:44:24;95238.63;;;8.51;73.29
34742;BME280;20968;42.696;23.360;2023-03-04T01:46:52;95229.47;;;8.54;73.63
34742;BME280;20968;42.696;23.360;2023-03-04T01:49:18;95220.63;;;8.50;73.70
34742;BME280;20968;42.696;23.360;2023-03-04T01:51:49;95228.91;;;8.42;73.94
34742;BME280;20968;42.696;23.360;2023-03-04T01:54:17;95232.09;;;8.40;73.24
34742;BME280;20968;42.696;23.360;2023-03-04T01:56:48;95228.59;;;8.40;73.76
34742;BME280;20968;42.696;23.360;2023-03-04T01:59:22;95217.50;;;8.34;73.38
34742;BME280;20968;42.696;23.360;2023-03-04T02:01:51;95224.97;;;8.34;73.80
34742;BME280;20968;42.696;23.360;2023-03-04T02:04:21;95217.81;;;8.27;73.59
34742;BME280;20968;42.696;23.360;2023-03-04T02:06:48;95217.81;;;8.27;74.57
34742;BME280;20968;42.696;23.360;2023-03-04T02:09:16;95226.19;;;8.33;74.29
34742;BME280;20968;42.696;23.360;2023-03-04T02:11:42;95218.00;;;8.24;73.29
34742;BME280;20968;42.696;23.360;2023-03-04T02:14:09;95220.75;;;8.15;74.16
34742;BME280;20968;42.696;23.360;2023-03-04T02:16:36;95221.81;;;8.08;74.38
34742;BME280;20968;42.696;23.360;2023-03-04T02:19:04;95219.53;;;8.16;74.65
34742;BME280;20968;42.696;23.360;2023-03-04T02:21:33;95222.56;;;8.09;74.30
34742;BME280;20968;42.696;23.360;2023-03-04T02:26:53;95211.16;;;8.01;73.92
34742;BME280;20968;42.696;23.360;2023-03-04T02:29:18;95218.03;;;7.97;73.87
34742;BME280;20968;42.696;23.360;2023-03-04T02:31:46;95213.78;;;7.96;74.12
34742;BME280;20968;42.696;23.360;2023-03-04T02:34:18;95212.41;;;7.91;74.97
34742;BME280;20968;42.696;23.360;2023-03-04T02:36:45;95217.41;;;8.02;74.87
34742;BME280;20968;42.696;23.360;2023-03-04T02:41:40;95222.09;;;8.10;73.93
34742;BME280;20968;42.696;23.360;2023-03-04T02:44:27;95213.72;;;8.14;74.75
34742;BME280;20968;42.696;23.360;2023-03-04T02:46:54;95204.44;;;8.11;74.24
34742;BME280;20968;42.696;23.360;2023-03-04T02:49:21;95209.19;;;8.20;74.37
34742;BME280;20968;42.696;23.360;2023-03-04T02:51:50;95204.59;;;8.26;74.55
34742;BME280;20968;42.696;23.360;2023-03-04T02:54:21;95208.53;;;8.25;74.11
34742;BME280;20968;42.696;23.360;2023-03-04T02:56:48;95202.28;;;8.24;73.46
34742;BME280;20968;42.696;23.360;2023-03-04T02:59:16;95209.91;;;8.29;73.73
34742;BME280;20968;42.696;23.360;2023-03-04T03:01:41;95202.44;;;8.30;73.67
34742;BME280;20968;42.696;23.360;2023-03-04T03:04:07;95202.72;;;8.32;73.54
34742;BME280;20968;42.696;23.360;2023-03-04T03:06:41;95199.25;;;8.31;73.17
34742;BME280;20968;42.696;23.360;2023-03-04T03:09:06;95211.59;;;8.27;72.70
34742;BME280;20968;42.696;23.360;2023-03-04T03:11:33;95211.75;;;8.23;73.35
34742;BME280;20968;42.696;23.360;2023-03-04T03:13:58;95198.34;;;8.16;72.70
34742;BME280;20968;42.696;23.360;2023-03-04T03:16:24;95210.97;;;8.23;72.47
34742;BME280;20968;42.696;23.360;2023-03-04T03:18:51;95209.28;;;8.25;72.94
34742;BME280;20968;42.696;23.360;2023-03-04T03:21:16;95210.69;;;8.12;73.23
34742;BME280;20968;42.696;23.360;2023-03-04T03:23:46;95211.13;;;8.10;73.57
34742;BME280;20968;42.696;23.360;2023-03-04T03:26:11;95217.53;;;8.16;72.49
34742;BME280;20968;42.696;23.360;2023-03-04T03:28:37;95214.66;;;8.11;72.30
34742;BME280;20968;42.696;23.360;2023-03-04T03:31:02;95208.13;;;8.08;73.06
34742;BME280;20968;42.696;23.360;2023-03-04T03:33:28;95197.44;;;8.10;73.15
34742;BME280;20968;42.696;23.360;2023-03-04T03:35:53;95203.53;;;8.14;72.66
34742;BME280;20968;42.696;23.360;2023-03-04T03:38:19;95200.16;;;8.10;73.08
34742;BME280;20968;42.696;23.360;2023-03-04T03:40:44;95186.94;;;8.09;72.48
34742;BME280;20968;42.696;23.360;2023-03-04T03:43:10;95197.25;;;8.14;73.11
34742;BME280;20968;42.696;23.360;2023-03-04T03:45:35;95198.94;;;8.11;72.75
34742;BME280;20968;42.696;23.360;2023-03-04T03:48:01;95198.66;;;8.09;72.55
34742;BME280;20968;42.696;23.360;2023-03-04T03:50:26;95201.56;;;8.15;72.37
34742;BME280;20968;42.696;23.360;2023-03-04T03:52:53;95200.00;;;8.14;72.71
34742;BME280;20968;42.696;23.360;2023-03-04T03:55:19;95192.72;;;8.11;72.34
34742;BME280;20968;42.696;23.360;2023-03-04T03:57:51;95195.75;;;8.13;71.78
34742;BME280;20968;42.696;23.360;2023-03-04T04:00:20;95193.94;;;8.10;71.63
34742;BME280;20968;42.696;23.360;2023-03-04T04:02:45;95194.25;;;8.12;71.83
34742;BME280;20968;42.696;23.360;2023-03-04T04:05:11;95186.63;;;8.07;72.78
34742;BME280;20968;42.696;23.360;2023-03-04T04:07:37;95184.50;;;8.11;72.03
34742;BME280;20968;42.696;23.360;2023-03-04T04:10:04;95172.34;;;8.03;72.28
34742;BME280;20968;42.696;23.360;2023-03-04T04:12:29;95177.97;;;8.08;71.28
34742;BME280;20968;42.696;23.360;2023-03-04T04:14:55;95179.63;;;8.06;72.31
34742;BME280;20968;42.696;23.360;2023-03-04T04:17:20;95174.47;;;7.99;71.53
34742;BME280;20968;42.696;23.360;2023-03-04T04:19:46;95177.66;;;7.97;71.50
34742;BME280;20968;42.696;23.360;2023-03-04T04:22:17;95192.00;;;7.92;72.34
34742;BME280;20968;42.696;23.360;2023-03-04T04:24:43;95187.59;;;7.86;72.02
34742;BME280;20968;42.696;23.360;2023-03-04T04:27:09;95191.72;;;7.81;72.51
34742;BME280;20968;42.696;23.360;2023-03-04T04:29:35;95172.06;;;7.83;71.87
34742;BME280;20968;42.696;23.360;2023-03-04T04:32:01;95177.69;;;7.88;72.25
34742;BME280;20968;42.696;23.360;2023-03-04T04:34:27;95179.22;;;7.89;72.12
34742;BME280;20968;42.696;23.360;2023-03-04T04:36:55;95180.25;;;7.92;71.87
34742;BME280;20968;42.696;23.360;2023-03-04T04:39:21;95182.41;;;7.88;72.66
34742;BME280;20968;42.696;23.360;2023-03-04T04:41:47;95189.44;;;7.80;72.73
34742;BME280;20968;42.696;23.360;2023-03-04T04:44:12;95171.06;;;7.63;72.71
34742;BME280;20968;42.696;23.360;2023-03-04T04:46:40;95178.34;;;7.66;73.22
34742;BME280;20968;42.696;23.360;2023-03-04T04:49:06;95177.59;;;7.74;73.12
34742;BME280;20968;42.696;23.360;2023-03-04T04:51:32;95181.97;;;7.71;72.88
34742;BME280;20968;42.696;23.360;2023-03-04T04:53:59;95174.84;;;7.65;72.12
34742;BME280;20968;42.696;23.360;2023-03-04T04:56:25;95182.13;;;7.68;72.30
34742;BME280;20968;42.696;23.360;2023-03-04T04:58:57;95191.72;;;7.72;72.60
34742;BME280;20968;42.696;23.360;2023-03-04T05:01:24;95185.81;;;7.65;72.09
34742;BME280;20968;42.696;23.360;2023-03-04T05:03:50;95192.66;;;7.70;72.58
34742;BME280;20968;42.696;23.360;2023-03-04T05:06:19;95190.97;;;7.72;71.78
34742;BME280;20968;42.696;23.360;2023-03-04T05:08:45;95198.56;;;7.77;72.89
34742;BME280;20968;42.696;23.360;2023-03-04T05:11:10;95207.56;;;7.77;72.67
34742;BME280;20968;42.696;23.360;2023-03-04T05:13:36;95209.06;;;7.78;72.49
34742;BME280;20968;42.696;23.360;2023-03-04T05:16:02;95210.75;;;7.76;72.71
34742;BME280;20968;42.696;23.360;2023-03-04T05:18:27;95210.16;;;7.81;73.22
34742;BME280;20968;42.696;23.360;2023-03-04T05:20:58;95211.97;;;7.84;73.18
34742;BME280;20968;42.696;23.360;2023-03-04T05:23:25;95210.13;;;7.90;73.28
34742;BME280;20968;42.696;23.360;2023-03-04T05:25:52;95204.50;;;7.93;73.09
34742;BME280;20968;42.696;23.360;2023-03-04T05:28:18;95206.31;;;7.87;73.95
34742;BME280;20968;42.696;23.360;2023-03-04T05:30:44;95216.78;;;7.98;73.18
34742;BME280;20968;42.696;23.360;2023-03-04T05:33:12;95206.91;;;8.00;73.42
34742;BME280;20968;42.696;23.360;2023-03-04T05:35:40;95226.53;;;8.08;73.59
34742;BME280;20968;42.696;23.360;2023-03-04T05:38:08;95224.09;;;8.10;73.56
34742;BME280;20968;42.696;23.360;2023-03-04T05:40:34;95226.06;;;8.18;73.09
34742;BME280;20968;42.696;23.360;2023-03-04T05:43:00;95227.44;;;8.23;73.27
34742;BME280;20968;42.696;23.360;2023-03-04T05:45:25;95225.59;;;8.29;73.51
34742;BME280;20968;42.696;23.360;2023-03-04T05:47:52;95232.59;;;8.30;73.66
34742;BME280;20968;42.696;23.360;2023-03-04T05:50:19;95228.94;;;8.33;73.88
34742;BME280;20968;42.696;23.360;2023-03-04T05:52:45;95225.09;;;8.39;73.25
34742;BME280;20968;42.696;23.360;2023-03-04T05:55:10;95226.00;;;8.45;72.58
34742;BME280;20968;42.696;23.360;2023-03-04T05:57:36;95227.69;;;8.43;73.02
34742;BME280;20968;42.696;23.360;2023-03-04T06:00:03;95236.97;;;8.45;73.48
34742;BME280;20968;42.696;23.360;2023-03-04T06:02:30;95233.63;;;8.41;73.25
34742;BME280;20968;42.696;23.360;2023-03-04T06:04:55;95238.66;;;8.43;72.79
34742;BME280;20968;42.696;23.360;2023-03-04T06:07:21;95237.72;;;8.46;72.88
34742;BME280;20968;42.696;23.360;2023-03-04T06:09:46;95250.38;;;8.52;73.46
34742;BME280;20968;42.696;23.360;2023-03-04T06:12:12;95245.31;;;8.50;72.27
34742;BME280;20968;42.696;23.360;2023-03-04T06:14:37;95249.59;;;8.51;73.09
34742;BME280;20968;42.696;23.360;2023-03-04T06:17:03;95231.78;;;8.47;72.99
34742;BME280;20968;42.696;23.360;2023-03-04T06:19:28;95248.50;;;8.58;72.80
34742;BME280;20968;42.696;23.360;2023-03-04T06:21:54;95248.34;;;8.61;72.62
34742;BME280;20968;42.696;23.360;2023-03-04T06:24:20;95247.44;;;8.64;73.15
34742;BME280;20968;42.696;23.360;2023-03-04T06:26:46;95246.34;;;8.62;72.53
34742;BME280;20968;42.696;23.360;2023-03-04T06:29:11;95246.03;;;8.69;71.77
34742;BME280;20968;42.696;23.360;2023-03-04T06:31:37;95260.81;;;8.71;72.71
34742;BME280;20968;42.696;23.360;2023-03-04T06:34:03;95253.81;;;8.70;72.93
34742;BME280;20968;42.696;23.360;2023-03-04T06:36:29;95251.38;;;8.72;72.87
34742;BME280;20968;42.696;23.360;2023-03-04T06:38:54;95257.06;;;8.92;72.51
34742;BME280;20968;42.696;23.360;2023-03-04T06:41:19;95258.41;;;8.97;71.98
34742;BME280;20968;42.696;23.360;2023-03-04T06:43:45;95256.41;;;8.97;71.88
34742;BME280;20968;42.696;23.360;2023-03-04T06:46:10;95257.31;;;9.03;72.18
34742;BME280;20968;42.696;23.360;2023-03-04T06:48:36;95259.41;;;9.08;71.98
34742;BME280;20968;42.696;23.360;2023-03-04T06:51:08;95253.75;;;9.12;71.96
34742;BME280;20968;42.696;23.360;2023-03-04T06:53:35;95246.72;;;9.11;72.17
34742;BME280;20968;42.696;23.360;2023-03-04T06:56:01;95266.47;;;9.24;71.40
34742;BME280;20968;42.696;23.360;2023-03-04T06:58:29;95266.44;;;9.32;71.75
34742;BME280;20968;42.696;23.360;2023-03-04T07:00:54;95263.84;;;9.29;71.04
34742;BME280;20968;42.696;23.360;2023-03-04T07:03:20;95266.59;;;9.29;70.43
34742;BME280;20968;42.696;23.360;2023-03-04T07:05:45;95271.72;;;9.22;71.22
34742;BME280;20968;42.696;23.360;2023-03-04T07:08:11;95275.72;;;9.12;71.75
34742;BME280;20968;42.696;23.360;2023-03-04T07:10:36;95271.63;;;9.07;71.28
34742;BME280;20968;42.696;23.360;2023-03-04T07:13:02;95274.06;;;9.05;71.74
34742;BME280;20968;42.696;23.360;2023-03-04T07:15:27;95279.28;;;9.03;71.90
34742;BME280;20968;42.696;23.360;2023-03-04T07:17:53;95264.94;;;8.99;70.93
34742;BME280;20968;42.696;23.360;2023-03-04T07:20:19;95275.75;;;9.03;72.18
34742;BME280;20968;42.696;23.360;2023-03-04T07:22:44;95279.28;;;9.03;72.00
34742;BME280;20968;42.696;23.360;2023-03-04T07:25:10;95273.63;;;9.07;70.91
34742;BME280;20968;42.696;23.360;2023-03-04T07:27:35;95273.88;;;9.09;71.40
34742;BME280;20968;42.696;23.360;2023-03-04T07:30:04;95274.66;;;9.09;71.75
34742;BME280;20968;42.696;23.360;2023-03-04T07:32:30;95272.50;;;9.13;72.05
34742;BME280;20968;42.696;23.360;2023-03-04T07:34:58;95289.09;;;9.19;71.18
34742;BME280;20968;42.696;23.360;2023-03-04T07:37:24;95274.63;;;9.18;71.25
34742;BME280;20968;42.696;23.360;2023-03-04T07:39:49;95277.59;;;9.29;71.13
34742;BME280;20968;42.696;23.360;2023-03-04T07:42:14;95286.44;;;9.33;70.17
34742;BME280;20968;42.696;23.360;2023-03-04T07:44:40;95278.78;;;9.37;70.91
34742;BME280;20968;42.696;23.360;2023-03-04T07:47:05;95277.72;;;9.34;70.42
34742;BME280;20968;42.696;23.360;2023-03-04T07:49:31;95276.94;;;9.34;70.98
34742;BME280;20968;42.696;23.360;2023-03-04T07:51:56;95273.56;;;9.39;70.32
34742;BME280;20968;42.696;23.360;2023-03-04T07:54:22;95264.81;;;9.26;70.92
34742;BME280;20968;42.696;23.360;2023-03-04T07:56:47;95260.75;;;9.13;71.37
34742;BME280;20968;42.696;23.360;2023-03-04T07:59:12;95278.06;;;9.27;70.86
34742;BME280;20968;42.696;23.360;2023-03-04T08:01:38;95270.75;;;9.25;71.31
34742;BME280;20968;42.696;23.360;2023-03-04T08:04:05;95276.91;;;9.20;71.61
34742;BME280;20968;42.696;23.360;2023-03-04T08:06:31;95269.69;;;9.22;71.19
34742;BME280;20968;42.696;23.360;2023-03-04T08:09:02;95274.28;;;9.25;71.87
34742;BME280;20968;42.696;23.360;2023-03-04T08:11:29;95262.63;;;9.30;71.02
34742;BME280;20968;42.696;23.360;2023-03-04T08:13:55;95264.72;;;9.35;71.38
34742;BME280;20968;42.696;23.360;2023-03-04T08:16:21;95265.63;;;9.41;71.13
34742;BME280;20968;42.696;23.360;2023-03-04T08:18:51;95268.56;;;9.37;70.04
34742;BME280;20968;42.696;23.360;2023-03-04T08:21:18;95269.00;;;9.36;71.12
34742;BME280;20968;42.696;23.360;2023-03-04T08:23:45;95265.63;;;9.41;70.34
34742;BME280;20968;42.696;23.360;2023-03-04T08:26:15;95267.25;;;9.24;71.36
34742;BME280;20968;42.696;23.360;2023-03-04T08:28:41;95265.56;;;9.27;71.03
34742;BME280;20968;42.696;23.360;2023-03-04T08:31:06;95261.16;;;9.20;70.94
34742;BME280;20968;42.696;23.360;2023-03-04T08:33:32;95274.53;;;9.27;70.59
34742;BME280;20968;42.696;23.360;2023-03-04T08:35:58;95259.03;;;9.24;70.42
34742;BME280;20968;42.696;23.360;2023-03-04T08:38:25;95262.06;;;9.26;70.91
34742;BME280;20968;42.696;23.360;2023-03-04T08:40:53;95254.09;;;9.28;70.77
34742;BME280;20968;42.696;23.360;2023-03-04T08:43:18;95259.53;;;9.37;71.11
34742;BME280;20968;42.696;23.360;2023-03-04T08:45:44;95262.59;;;9.39;71.32
34742;BME280;20968;42.696;23.360;2023-03-04T08:48:10;95255.03;;;9.25;70.52
34742;BME280;20968;42.696;23.360;2023-03-04T08:50:35;95254.03;;;9.37;70.62
34742;BME280;20968;42.696;23.360;2023-03-04T08:53:00;95248.53;;;9.37;70.88
34742;BME280;20968;42.696;23.360;2023-03-04T08:55:26;95249.16;;;9.41;70.18
34742;BME280;20968;42.696;23.360;2023-03-04T08:57:51;95248.44;;;9.55;70.13
34742;BME280;20968;42.696;23.360;2023-03-04T09:00:17;95256.59;;;9.64;70.35
34742;BME280;20968;42.696;23.360;2023-03-04T09:02:43;95254.59;;;9.64;69.56
34742;BME280;20968;42.696;23.360;2023-03-04T09:05:08;95235.28;;;9.73;69.19
34742;BME280;20968;42.696;23.360;2023-03-04T09:07:34;95243.13;;;9.66;68.47
34742;BME280;20968;42.696;23.360;2023-03-04T09:09:59;95243.66;;;9.79;68.25
34742;BME280;20968;42.696;23.360;2023-03-04T09:12:25;95250.13;;;9.90;68.46
34742;BME280;20968;42.696;23.360;2023-03-04T09:14:50;95244.03;;;9.86;68.64
34742;BME280;20968;42.696;23.360;2023-03-04T09:17:15;95238.06;;;9.88;69.13
34742;BME280;20968;42.696;23.360;2023-03-04T09:19:41;95245.97;;;9.95;68.74
34742;BME280;20968;42.696;23.360;2023-03-04T09:22:06;95231.13;;;9.92;68.31
34742;BME280;20968;42.696;23.360;2023-03-04T09:24:32;95236.19;;;9.94;68.60
34742;BME280;20968;42.696;23.360;2023-03-04T09:26:57;95243.72;;;10.07;66.50
34742;BME280;20968;42.696;23.360;2023-03-04T09:29:22;95231.72;;;9.96;67.41
34742;BME280;20968;42.696;23.360;2023-03-04T09:31:49;95226.63;;;10.04;66.31
34742;BME280;20968;42.696;23.360;2023-03-04T09:34:14;95230.91;;;10.05;66.60
34742;BME280;20968;42.696;23.360;2023-03-04T09:36:39;95217.53;;;10.12;66.72
34742;BME280;20968;42.696;23.360;2023-03-04T09:39:05;95225.22;;;10.22;66.17
34742;BME280;20968;42.696;23.360;2023-03-04T09:41:40;95233.84;;;10.01;66.26
34742;BME280;20968;42.696;23.360;2023-03-04T09:44:14;95223.63;;;10.02;66.60
34742;BME280;20968;42.696;23.360;2023-03-04T09:46:42;95231.69;;;10.05;66.06
34742;BME280;20968;42.696;23.360;2023-03-04T09:49:12;95226.94;;;10.20;65.36
34742;BME280;20968;42.696;23.360;2023-03-04T10:02:46;95200.44;;;10.51;64.89
34742;BME280;20968;42.696;23.360;2023-03-04T10:05:19;95217.09;;;10.77;64.79
34742;BME280;20968;42.696;23.360;2023-03-04T10:07:49;95200.56;;;10.77;63.04
34742;BME280;20968;42.696;23.360;2023-03-04T10:10:39;95200.25;;;10.89;63.01
34742;BME280;20968;42.696;23.360;2023-03-04T10:13:14;95205.16;;;10.99;62.32
34742;BME280;20968;42.696;23.360;2023-03-04T10:15:42;95201.13;;;11.15;61.68
34742;BME280;20968;42.696;23.360;2023-03-04T10:18:21;95193.28;;;11.08;62.90
34742;BME280;20968;42.696;23.360;2023-03-04T10:20:57;95193.69;;;11.21;62.42
34742;BME280;20968;42.696;23.360;2023-03-04T10:23:26;95195.00;;;11.25;62.38
34742;BME280;20968;42.696;23.360;2023-03-04T10:25:53;95196.03;;;11.28;61.23
34742;BME280;20968;42.696;23.360;2023-03-04T10:28:23;95190.78;;;11.50;60.95
34742;BME280;20968;42.696;23.360;2023-03-04T10:33:19;95177.44;;;11.43;60.54
34742;BME280;20968;42.696;23.360;2023-03-04T10:38:38;95169.56;;;11.75;58.97
34742;BME280;20968;42.696;23.360;2023-03-04T10:41:19;95168.72;;;11.89;59.25
34742;BME280;20968;42.696;23.360;2023-03-04T10:44:16;95158.59;;;12.06;60.20
34742;BME280;20968;42.696;23.360;2023-03-04T10:46:44;95156.72;;;12.23;57.74
34742;BME280;20968;42.696;23.360;2023-03-04T10:49:12;95158.63;;;12.12;57.90
34742;BME280;20968;42.696;23.360;2023-03-04T10:51:45;95148.63;;;12.14;59.08
34742;BME280;20968;42.696;23.360;2023-03-04T10:54:26;95141.16;;;12.20;59.27
34742;BME280;20968;42.696;23.360;2023-03-04T10:56:54;95148.44;;;12.23;58.63
34742;BME280;20968;42.696;23.360;2023-03-04T10:59:39;95143.28;;;12.05;59.60
34742;BME280;20968;42.696;23.360;2023-03-04T11:02:28;95140.41;;;11.94;60.09
34742;BME280;20968;42.696;23.360;2023-03-04T11:05:04;95138.28;;;12.09;59.24
34742;BME280;20968;42.696;23.360;2023-03-04T11:07:29;95126.72;;;12.05;58.42
34742;BME280;20968;42.696;23.360;2023-03-04T11:10:07;95124.41;;;12.04;58.97
34742;BME280;20968;42.696;23.360;2023-03-04T11:12:33;95121.84;;;11.95;59.50
34742;BME280;20968;42.696;23.360;2023-03-04T11:15:00;95112.16;;;12.05;59.68
34742;BME280;20968;42.696;23.360;2023-03-04T11:17:44;95114.88;;;11.99;60.03
34742;BME280;20968;42.696;23.360;2023-03-04T11:20:33;95106.63;;;12.05;59.46
34742;BME280;20968;42.696;23.360;2023-03-04T11:23:05;95100.88;;;12.08;58.83
34742;BME280;20968;42.696;23.360;2023-03-04T11:25:39;95101.72;;;12.20;58.91
34742;BME280;20968;42.696;23.360;2023-03-04T11:28:20;95091.00;;;12.27;58.03
34742;BME280;20968;42.696;23.360;2023-03-04T11:30:49;95091.06;;;12.38;58.00
34742;BME280;20968;42.696;23.360;2023-03-04T11:36:00;95082.22;;;12.29;57.49
34742;BME280;20968;42.696;23.360;2023-03-04T11:38:35;95081.53;;;12.39;58.24
34742;BME280;20968;42.696;23.360;2023-03-04T11:41:14;95076.84;;;12.50;57.23
34742;BME280;20968;42.696;23.360;2023-03-04T11:43:42;95075.31;;;12.44;58.99
34742;BME280;20968;42.696;23.360;2023-03-04T11:49:21;95073.63;;;12.52;56.66
34742;BME280;20968;42.696;23.360;2023-03-04T12:00:47;95056.47;;;12.42;57.38
34742;BME280;20968;42.696;23.360;2023-03-04T12:03:43;95043.13;;;12.36;58.05
34742;BME280;20968;42.696;23.360;2023-03-04T12:08:58;95060.28;;;12.50;57.73
34742;BME280;20968;42.696;23.360;2023-03-04T12:11:37;95053.47;;;12.46;57.31
34742;BME280;20968;42.696;23.360;2023-03-04T12:17:21;95042.34;;;11.99;56.53
34742;BME280;20968;42.696;23.360;2023-03-04T12:22:35;95037.00;;;11.84;58.24
34742;BME280;20968;42.696;23.360;2023-03-04T12:25:14;95036.16;;;11.78;58.44
34742;BME280;20968;42.696;23.360;2023-03-04T12:30:59;95025.97;;;11.59;58.12
34742;BME280;20968;42.696;23.360;2023-03-04T12:38:47;95016.44;;;11.35;59.34
34742;BME280;20968;42.696;23.360;2023-03-04T12:47:14;95007.38;;;11.54;60.48
34742;BME280;20968;42.696;23.360;2023-03-04T12:52:50;95004.91;;;11.56;60.82
34742;BME280;20968;42.696;23.360;2023-03-04T12:55:22;94995.38;;;11.57;60.50
34742;BME280;20968;42.696;23.360;2023-03-04T12:57:53;94994.28;;;11.49;61.22
34742;BME280;20968;42.696;23.360;2023-03-04T13:03:20;94992.69;;;11.68;60.30
34742;BME280;20968;42.696;23.360;2023-03-04T13:06:27;94989.66;;;11.61;60.38
34742;BME280;20968;42.696;23.360;2023-03-04T13:09:14;94982.16;;;11.66;60.19
34742;BME280;20968;42.696;23.360;2023-03-04T13:16:47;94975.59;;;11.59;59.47
34742;BME280;20968;42.696;23.360;2023-03-04T13:38:37;94962.03;;;11.55;60.74
34742;BME280;20968;42.696;23.360;2023-03-04T13:41:15;94970.66;;;11.43;60.36
34742;BME280;20968;42.696;23.360;2023-03-04T13:54:29;94953.25;;;11.57;60.75
34742;BME280;20968;42.696;23.360;2023-03-04T13:57:18;94946.53;;;11.63;61.13
34742;BME280;20968;42.696;23.360;2023-03-04T13:59:55;94942.50;;;11.59;59.49
34742;BME280;20968;42.696;23.360;2023-03-04T14:02:22;94933.25;;;11.62;59.79
34742;BME280;20968;42.696;23.360;2023-03-04T14:10:05;94941.69;;;11.83;59.79
34742;BME280;20968;42.696;23.360;2023-03-04T14:12:43;94936.38;;;11.80;59.80
34742;BME280;20968;42.696;23.360;2023-03-04T14:17:38;94933.16;;;11.87;60.37
34742;BME280;20968;42.696;23.360;2023-03-04T14:20:22;94928.19;;;11.96;60.02
34742;BME280;20968;42.696;23.360;2023-03-04T14:22:49;94922.66;;;11.91;58.88
34742;BME280;20968;42.696;23.360;2023-03-04T14:27:42;94922.16;;;11.92;59.11
34742;BME280;20968;42.696;23.360;2023-03-04T14:30:21;94911.84;;;11.87;58.79
34742;BME280;20968;42.696;23.360;2023-03-04T14:32:47;94919.84;;;11.85;59.68
34742;BME280;20968;42.696;23.360;2023-03-04T14:35:31;94918.13;;;11.93;58.73
34742;BME280;20968;42.696;23.360;2023-03-04T14:38:06;94922.94;;;11.98;58.77
34742;BME280;20968;42.696;23.360;2023-03-04T14:40:41;94924.91;;;11.92;59.15
34742;BME280;20968;42.696;23.360;2023-03-04T14:43:15;94909.41;;;12.00;59.22
34742;BME280;20968;42.696;23.360;2023-03-04T14:45:42;94917.13;;;11.91;59.60
34742;BME280;20968;42.696;23.360;2023-03-04T14:48:17;94911.09;;;11.87;60.16
34742;BME280;20968;42.696;23.360;2023-03-04T14:50:52;94908.84;;;11.91;59.02
34742;BME280;20968;42.696;23.360;2023-03-04T14:53:20;94904.63;;;11.95;58.80
34742;BME280;20968;42.696;23.360;2023-03-04T14:55:59;94893.31;;;11.93;59.28